sensor_id;sensor_type;location;lat;lon;timestamp;P1;durP1;ratioP1;P2;durP2;ratioP2
59145;SDS011;44928;53.074;6.646;2023-07-20T00:02:00;4.88;;;1.40;;
59145;SDS011;44928;53.074;6.646;2023-07-20T00:04:27;3.40;;;1.38;;
59145;SDS011;44928;53.074;6.646;2023-07-20T00:06:53;5.13;;;1.55;;
59145;SDS011;44928;53.074;6.646;2023-07-20T00:09:19;4.32;;;1.48;;
59145;SDS011;44928;53.074;6.646;2023-07-20T00:11:50;3.38;;;1.27;;
59145;SDS011;44928;53.074;6.646;2023-07-20T00:14:16;4.07;;;1.20;;
59145;SDS011;44928;53.074;6.646;2023-07-20T00:16:43;2.70;;;1.10;;
59145;SDS011;44928;53.074;6.646;2023-07-20T00:19:11;3.13;;;1.08;;
59145;SDS011;44928;53.074;6.646;2023-07-20T00:21:38;3.67;;;1.25;;
59145;SDS011;44928;53.074;6.646;2023-07-20T00:24:05;2.55;;;1.10;;
59145;SDS011;44928;53.074;6.646;2023-07-20T00:26:31;2.45;;;0.90;;
59145;SDS011;44928;53.074;6.646;2023-07-20T00:28:57;2.90;;;1.10;;
59145;SDS011;44928;53.074;6.646;2023-07-20T00:31:22;4.40;;;1.30;;
59145;SDS011;44928;53.074;6.646;2023-07-20T00:33:48;2.47;;;1.13;;
59145;SDS011;44928;53.074;6.646;2023-07-20T00:36:14;3.00;;;1.10;;
59145;SDS011;44928;53.074;6.646;2023-07-20T00:38:40;2.80;;;1.20;;
59145;SDS011;44928;53.074;6.646;2023-07-20T00:41:07;4.38;;;1.35;;
59145;SDS011;44928;53.074;6.646;2023-07-20T00:43:33;4.28;;;1.33;;
59145;SDS011;44928;53.074;6.646;2023-07-20T00:45:58;3.95;;;1.33;;
59145;SDS011;44928;53.074;6.646;2023-07-20T00:48:24;3.17;;;1.17;;
59145;SDS011;44928;53.074;6.646;2023-07-20T00:50:50;3.63;;;1.38;;
59145;SDS011;44928;53.074;6.646;2023-07-20T00:53:16;4.57;;;1.50;;
59145;SDS011;44928;53.074;6.646;2023-07-20T00:55:42;6.05;;;1.63;;
59145;SDS011;44928;53.074;6.646;2023-07-20T00:58:09;3.15;;;1.40;;
59145;SDS011;44928;53.074;6.646;2023-07-20T01:00:35;4.88;;;1.70;;
59145;SDS011;44928;53.074;6.646;2023-07-20T01:03:01;4.35;;;1.80;;
59145;SDS011;44928;53.074;6.646;2023-07-20T01:05:31;3.40;;;1.52;;
59145;SDS011;44928;53.074;6.646;2023-07-20T01:08:07;5.05;;;2.13;;
59145;SDS011;44928;53.074;6.646;2023-07-20T01:10:43;3.78;;;1.77;;
59145;SDS011;44928;53.074;6.646;2023-07-20T01:13:14;5.72;;;2.20;;
59145;SDS011;44928;53.074;6.646;2023-07-20T01:15:40;5.00;;;1.85;;
59145;SDS011;44928;53.074;6.646;2023-07-20T01:18:06;5.63;;;2.28;;
59145;SDS011;44928;53.074;6.646;2023-07-20T01:20:33;6.65;;;2.20;;
59145;SDS011;44928;53.074;6.646;2023-07-20T01:33:20;5.72;;;2.40;;
59145;SDS011;44928;53.074;6.646;2023-07-20T01:35:49;5.40;;;2.05;;
59145;SDS011;44928;53.074;6.646;2023-07-20T01:38:18;6.38;;;2.50;;
59145;SDS011;44928;53.074;6.646;2023-07-20T01:40:45;5.20;;;2.40;;
59145;SDS011;44928;53.074;6.646;2023-07-20T01:43:11;4.95;;;2.03;;
59145;SDS011;44928;53.074;6.646;2023-07-20T01:45:38;6.57;;;2.20;;
59145;SDS011;44928;53.074;6.646;2023-07-20T01:48:04;5.63;;;2.60;;
59145;SDS011;44928;53.074;6.646;2023-07-20T01:50:30;5.45;;;2.53;;
59145;SDS011;44928;53.074;6.646;2023-07-20T01:52:56;5.57;;;2.45;;
59145;SDS011;44928;53.074;6.646;2023-07-20T01:55:22;4.65;;;2.33;;
59145;SDS011;44928;53.074;6.646;2023-07-20T01:57:47;7.88;;;2.47;;
59145;SDS011;44928;53.074;6.646;2023-07-20T02:00:13;5.47;;;2.13;;
59145;SDS011;44928;53.074;6.646;2023-07-20T02:02:39;5.45;;;2.25;;
59145;SDS011;44928;53.074;6.646;2023-07-20T02:05:07;6.03;;;2.30;;
59145;SDS011;44928;53.074;6.646;2023-07-20T02:07:33;5.38;;;2.63;;
59145;SDS011;44928;53.074;6.646;2023-07-20T02:09:59;5.00;;;2.30;;
59145;SDS011;44928;53.074;6.646;2023-07-20T02:12:25;5.63;;;2.40;;
59145;SDS011;44928;53.074;6.646;2023-07-20T02:14:50;6.18;;;2.30;;
59145;SDS011;44928;53.074;6.646;2023-07-20T02:17:17;7.78;;;2.28;;
59145;SDS011;44928;53.074;6.646;2023-07-20T02:19:42;5.97;;;2.65;;
59145;SDS011;44928;53.074;6.646;2023-07-20T02:22:08;6.97;;;3.05;;
59145;SDS011;44928;53.074;6.646;2023-07-20T02:24:34;12.80;;;2.90;;
59145;SDS011;44928;53.074;6.646;2023-07-20T02:27:00;6.88;;;2.33;;
59145;SDS011;44928;53.074;6.646;2023-07-20T02:29:26;7.97;;;2.80;;
59145;SDS011;44928;53.074;6.646;2023-07-20T02:31:52;5.72;;;2.33;;
59145;SDS011;44928;53.074;6.646;2023-07-20T02:34:17;6.88;;;2.90;;
59145;SDS011;44928;53.074;6.646;2023-07-20T02:36:43;6.70;;;2.90;;
59145;SDS011;44928;53.074;6.646;2023-07-20T02:39:11;5.90;;;2.83;;
59145;SDS011;44928;53.074;6.646;2023-07-20T02:41:37;6.68;;;3.20;;
59145;SDS011;44928;53.074;6.646;2023-07-20T02:44:02;6.30;;;2.58;;
59145;SDS011;44928;53.074;6.646;2023-07-20T02:46:28;5.95;;;2.83;;
59145;SDS011;44928;53.074;6.646;2023-07-20T02:48:57;6.43;;;2.70;;
59145;SDS011;44928;53.074;6.646;2023-07-20T02:51:23;6.05;;;3.15;;
59145;SDS011;44928;53.074;6.646;2023-07-20T02:53:49;7.18;;;3.10;;
59145;SDS011;44928;53.074;6.646;2023-07-20T02:56:15;5.80;;;2.95;;
59145;SDS011;44928;53.074;6.646;2023-07-20T02:58:41;5.90;;;2.70;;
59145;SDS011;44928;53.074;6.646;2023-07-20T03:01:13;6.15;;;2.90;;
59145;SDS011;44928;53.074;6.646;2023-07-20T03:03:40;6.55;;;2.80;;
59145;SDS011;44928;53.074;6.646;2023-07-20T03:06:12;5.80;;;3.10;;
59145;SDS011;44928;53.074;6.646;2023-07-20T03:08:42;7.72;;;3.10;;
59145;SDS011;44928;53.074;6.646;2023-07-20T03:11:16;5.63;;;2.45;;
59145;SDS011;44928;53.074;6.646;2023-07-20T03:13:43;6.65;;;3.00;;
59145;SDS011;44928;53.074;6.646;2023-07-20T03:16:10;5.93;;;2.88;;
59145;SDS011;44928;53.074;6.646;2023-07-20T03:18:40;6.35;;;2.78;;
59145;SDS011;44928;53.074;6.646;2023-07-20T03:21:07;5.75;;;2.70;;
59145;SDS011;44928;53.074;6.646;2023-07-20T03:23:33;5.65;;;2.78;;
59145;SDS011;44928;53.074;6.646;2023-07-20T03:26:02;6.30;;;2.60;;
59145;SDS011;44928;53.074;6.646;2023-07-20T03:28:29;5.75;;;2.60;;
59145;SDS011;44928;53.074;6.646;2023-07-20T03:30:55;6.72;;;3.00;;
59145;SDS011;44928;53.074;6.646;2023-07-20T03:33:22;5.90;;;2.92;;
59145;SDS011;44928;53.074;6.646;2023-07-20T03:35:50;8.18;;;3.10;;
59145;SDS011;44928;53.074;6.646;2023-07-20T03:38:16;6.57;;;3.13;;
59145;SDS011;44928;53.074;6.646;2023-07-20T03:40:54;5.70;;;2.95;;
59145;SDS011;44928;53.074;6.646;2023-07-20T03:43:25;6.85;;;3.20;;
59145;SDS011;44928;53.074;6.646;2023-07-20T03:45:52;9.05;;;3.08;;
59145;SDS011;44928;53.074;6.646;2023-07-20T03:48:20;6.85;;;3.17;;
59145;SDS011;44928;53.074;6.646;2023-07-20T03:50:48;7.20;;;2.70;;
59145;SDS011;44928;53.074;6.646;2023-07-20T03:53:15;5.65;;;2.45;;
59145;SDS011;44928;53.074;6.646;2023-07-20T03:55:46;7.15;;;3.13;;
59145;SDS011;44928;53.074;6.646;2023-07-20T03:58:13;6.47;;;3.15;;
59145;SDS011;44928;53.074;6.646;2023-07-20T04:00:39;6.00;;;2.75;;
59145;SDS011;44928;53.074;6.646;2023-07-20T04:03:05;6.53;;;2.97;;
59145;SDS011;44928;53.074;6.646;2023-07-20T04:05:31;6.47;;;3.15;;
59145;SDS011;44928;53.074;6.646;2023-07-20T04:07:57;6.30;;;2.80;;
59145;SDS011;44928;53.074;6.646;2023-07-20T04:10:23;6.63;;;3.33;;
59145;SDS011;44928;53.074;6.646;2023-07-20T04:12:49;5.70;;;2.85;;
59145;SDS011;44928;53.074;6.646;2023-07-20T04:15:15;6.00;;;3.05;;
59145;SDS011;44928;53.074;6.646;2023-07-20T04:17:41;6.40;;;2.78;;
59145;SDS011;44928;53.074;6.646;2023-07-20T04:20:07;6.78;;;3.00;;
59145;SDS011;44928;53.074;6.646;2023-07-20T04:22:33;6.70;;;2.88;;
59145;SDS011;44928;53.074;6.646;2023-07-20T04:24:59;5.38;;;2.40;;
59145;SDS011;44928;53.074;6.646;2023-07-20T04:27:25;6.85;;;2.72;;
59145;SDS011;44928;53.074;6.646;2023-07-20T04:29:51;6.70;;;2.90;;
59145;SDS011;44928;53.074;6.646;2023-07-20T04:32:17;6.40;;;2.55;;
59145;SDS011;44928;53.074;6.646;2023-07-20T04:34:43;9.20;;;3.00;;
59145;SDS011;44928;53.074;6.646;2023-07-20T04:37:09;5.43;;;2.33;;
59145;SDS011;44928;53.074;6.646;2023-07-20T04:39:35;5.53;;;2.28;;
59145;SDS011;44928;53.074;6.646;2023-07-20T04:42:00;9.57;;;2.72;;
59145;SDS011;44928;53.074;6.646;2023-07-20T04:44:26;5.40;;;2.28;;
59145;SDS011;44928;53.074;6.646;2023-07-20T04:46:52;6.03;;;2.38;;
59145;SDS011;44928;53.074;6.646;2023-07-20T04:49:18;5.70;;;2.25;;
59145;SDS011;44928;53.074;6.646;2023-07-20T04:51:44;8.70;;;2.88;;
59145;SDS011;44928;53.074;6.646;2023-07-20T04:54:11;6.10;;;2.47;;
59145;SDS011;44928;53.074;6.646;2023-07-20T04:56:36;5.40;;;2.50;;
59145;SDS011;44928;53.074;6.646;2023-07-20T04:59:02;5.50;;;2.40;;
59145;SDS011;44928;53.074;6.646;2023-07-20T05:01:28;6.95;;;2.50;;
59145;SDS011;44928;53.074;6.646;2023-07-20T05:03:54;6.78;;;2.80;;
59145;SDS011;44928;53.074;6.646;2023-07-20T05:06:20;7.65;;;2.55;;
59145;SDS011;44928;53.074;6.646;2023-07-20T05:08:45;6.47;;;2.47;;
59145;SDS011;44928;53.074;6.646;2023-07-20T05:11:11;5.30;;;2.10;;
59145;SDS011;44928;53.074;6.646;2023-07-20T05:13:37;5.38;;;2.10;;
59145;SDS011;44928;53.074;6.646;2023-07-20T05:16:03;5.70;;;2.20;;
59145;SDS011;44928;53.074;6.646;2023-07-20T05:18:29;5.80;;;2.08;;
59145;SDS011;44928;53.074;6.646;2023-07-20T05:20:56;5.72;;;2.22;;
59145;SDS011;44928;53.074;6.646;2023-07-20T05:23:22;5.68;;;2.03;;
59145;SDS011;44928;53.074;6.646;2023-07-20T05:25:54;5.05;;;1.85;;
59145;SDS011;44928;53.074;6.646;2023-07-20T05:28:24;6.20;;;2.20;;
59145;SDS011;44928;53.074;6.646;2023-07-20T05:30:51;6.47;;;2.00;;
59145;SDS011;44928;53.074;6.646;2023-07-20T05:33:19;3.95;;;1.70;;
59145;SDS011;44928;53.074;6.646;2023-07-20T05:35:45;6.38;;;2.20;;
59145;SDS011;44928;53.074;6.646;2023-07-20T05:38:11;5.38;;;1.80;;
59145;SDS011;44928;53.074;6.646;2023-07-20T05:40:37;6.20;;;1.90;;
59145;SDS011;44928;53.074;6.646;2023-07-20T05:43:05;7.10;;;2.05;;
59145;SDS011;44928;53.074;6.646;2023-07-20T05:45:31;6.72;;;1.80;;
59145;SDS011;44928;53.074;6.646;2023-07-20T05:47:57;6.00;;;2.03;;
59145;SDS011;44928;53.074;6.646;2023-07-20T05:50:22;6.82;;;1.90;;
59145;SDS011;44928;53.074;6.646;2023-07-20T05:52:48;6.55;;;1.95;;
59145;SDS011;44928;53.074;6.646;2023-07-20T05:55:14;5.45;;;2.22;;
59145;SDS011;44928;53.074;6.646;2023-07-20T05:57:40;5.55;;;2.20;;
59145;SDS011;44928;53.074;6.646;2023-07-20T06:00:07;4.55;;;2.00;;
59145;SDS011;44928;53.074;6.646;2023-07-20T06:02:34;6.30;;;2.05;;
59145;SDS011;44928;53.074;6.646;2023-07-20T06:05:00;6.57;;;2.25;;
59145;SDS011;44928;53.074;6.646;2023-07-20T06:07:26;7.50;;;2.15;;
59145;SDS011;44928;53.074;6.646;2023-07-20T06:09:51;6.43;;;2.00;;
59145;SDS011;44928;53.074;6.646;2023-07-20T06:12:17;5.57;;;1.90;;
59145;SDS011;44928;53.074;6.646;2023-07-20T06:14:43;6.53;;;2.00;;
59145;SDS011;44928;53.074;6.646;2023-07-20T06:17:09;5.78;;;1.90;;
59145;SDS011;44928;53.074;6.646;2023-07-20T06:19:35;5.68;;;1.83;;
59145;SDS011;44928;53.074;6.646;2023-07-20T06:22:01;7.60;;;1.88;;
59145;SDS011;44928;53.074;6.646;2023-07-20T06:24:27;5.18;;;1.52;;
59145;SDS011;44928;53.074;6.646;2023-07-20T06:26:53;6.20;;;1.67;;
59145;SDS011;44928;53.074;6.646;2023-07-20T06:29:19;4.70;;;1.52;;
59145;SDS011;44928;53.074;6.646;2023-07-20T06:31:45;4.55;;;1.50;;
59145;SDS011;44928;53.074;6.646;2023-07-20T06:34:10;4.43;;;1.40;;
59145;SDS011;44928;53.074;6.646;2023-07-20T06:36:36;3.53;;;1.27;;
59145;SDS011;44928;53.074;6.646;2023-07-20T06:39:02;5.57;;;1.60;;
59145;SDS011;44928;53.074;6.646;2023-07-20T06:41:28;4.75;;;1.17;;
59145;SDS011;44928;53.074;6.646;2023-07-20T06:43:54;6.72;;;1.30;;
59145;SDS011;44928;53.074;6.646;2023-07-20T06:46:24;3.47;;;1.15;;
59145;SDS011;44928;53.074;6.646;2023-07-20T06:48:52;5.63;;;1.30;;
59145;SDS011;44928;53.074;6.646;2023-07-20T06:51:19;4.32;;;1.10;;
59145;SDS011;44928;53.074;6.646;2023-07-20T06:53:45;4.70;;;1.50;;
59145;SDS011;44928;53.074;6.646;2023-07-20T06:56:11;6.25;;;1.10;;
59145;SDS011;44928;53.074;6.646;2023-07-20T06:58:37;3.53;;;0.93;;
59145;SDS011;44928;53.074;6.646;2023-07-20T07:01:06;5.97;;;1.10;;
59145;SDS011;44928;53.074;6.646;2023-07-20T07:03:32;4.50;;;0.97;;
59145;SDS011;44928;53.074;6.646;2023-07-20T07:05:59;4.93;;;1.30;;
59145;SDS011;44928;53.074;6.646;2023-07-20T07:08:25;4.43;;;1.38;;
59145;SDS011;44928;53.074;6.646;2023-07-20T07:10:52;3.50;;;1.08;;
59145;SDS011;44928;53.074;6.646;2023-07-20T07:13:18;4.55;;;0.90;;
59145;SDS011;44928;53.074;6.646;2023-07-20T07:15:44;6.25;;;1.10;;
59145;SDS011;44928;53.074;6.646;2023-07-20T07:18:11;5.72;;;1.30;;
59145;SDS011;44928;53.074;6.646;2023-07-20T07:20:37;5.55;;;1.40;;
59145;SDS011;44928;53.074;6.646;2023-07-20T07:23:02;5.82;;;1.27;;
59145;SDS011;44928;53.074;6.646;2023-07-20T07:25:28;6.18;;;1.17;;
59145;SDS011;44928;53.074;6.646;2023-07-20T07:27:56;6.18;;;1.33;;
59145;SDS011;44928;53.074;6.646;2023-07-20T07:30:22;5.55;;;1.40;;
59145;SDS011;44928;53.074;6.646;2023-07-20T07:32:48;5.22;;;1.20;;
59145;SDS011;44928;53.074;6.646;2023-07-20T07:35:14;6.15;;;1.77;;
59145;SDS011;44928;53.074;6.646;2023-07-20T07:37:39;6.03;;;1.65;;
59145;SDS011;44928;53.074;6.646;2023-07-20T07:40:06;6.63;;;1.42;;
59145;SDS011;44928;53.074;6.646;2023-07-20T07:42:33;4.57;;;1.48;;
59145;SDS011;44928;53.074;6.646;2023-07-20T07:44:59;8.02;;;2.22;;
59145;SDS011;44928;53.074;6.646;2023-07-20T07:47:24;6.90;;;1.80;;
59145;SDS011;44928;53.074;6.646;2023-07-20T07:49:50;4.05;;;1.55;;
59145;SDS011;44928;53.074;6.646;2023-07-20T07:52:16;5.70;;;1.20;;
59145;SDS011;44928;53.074;6.646;2023-07-20T07:54:42;9.48;;;1.52;;
59145;SDS011;44928;53.074;6.646;2023-07-20T07:57:08;4.63;;;1.25;;
59145;SDS011;44928;53.074;6.646;2023-07-20T07:59:33;5.28;;;1.40;;
59145;SDS011;44928;53.074;6.646;2023-07-20T08:02:04;4.57;;;1.48;;
59145;SDS011;44928;53.074;6.646;2023-07-20T08:04:30;5.63;;;1.40;;
59145;SDS011;44928;53.074;6.646;2023-07-20T08:06:56;4.95;;;1.38;;
59145;SDS011;44928;53.074;6.646;2023-07-20T08:09:24;4.70;;;1.25;;
59145;SDS011;44928;53.074;6.646;2023-07-20T08:11:50;4.68;;;1.30;;
59145;SDS011;44928;53.074;6.646;2023-07-20T08:14:16;6.60;;;1.42;;
59145;SDS011;44928;53.074;6.646;2023-07-20T08:16:42;5.07;;;1.38;;
59145;SDS011;44928;53.074;6.646;2023-07-20T08:19:08;5.65;;;1.63;;
59145;SDS011;44928;53.074;6.646;2023-07-20T08:21:34;5.15;;;1.20;;
59145;SDS011;44928;53.074;6.646;2023-07-20T08:24:00;5.22;;;1.20;;
59145;SDS011;44928;53.074;6.646;2023-07-20T08:26:26;5.15;;;1.60;;
59145;SDS011;44928;53.074;6.646;2023-07-20T08:28:51;4.68;;;1.48;;
59145;SDS011;44928;53.074;6.646;2023-07-20T08:31:17;4.03;;;1.40;;
59145;SDS011;44928;53.074;6.646;2023-07-20T08:33:43;4.70;;;1.35;;
59145;SDS011;44928;53.074;6.646;2023-07-20T08:36:09;6.53;;;1.60;;
59145;SDS011;44928;53.074;6.646;2023-07-20T08:38:35;7.03;;;1.90;;
59145;SDS011;44928;53.074;6.646;2023-07-20T08:41:00;5.53;;;1.45;;
59145;SDS011;44928;53.074;6.646;2023-07-20T08:43:27;3.55;;;1.30;;
59145;SDS011;44928;53.074;6.646;2023-07-20T08:45:56;4.55;;;1.30;;
59145;SDS011;44928;53.074;6.646;2023-07-20T08:48:22;6.13;;;1.30;;
59145;SDS011;44928;53.074;6.646;2023-07-20T08:50:50;5.97;;;1.63;;
59145;SDS011;44928;53.074;6.646;2023-07-20T08:53:19;9.25;;;1.70;;
59145;SDS011;44928;53.074;6.646;2023-07-20T08:55:45;6.13;;;1.65;;
59145;SDS011;44928;53.074;6.646;2023-07-20T08:58:15;7.80;;;2.10;;
59145;SDS011;44928;53.074;6.646;2023-07-20T09:00:43;7.88;;;2.28;;
59145;SDS011;44928;53.074;6.646;2023-07-20T09:03:09;7.97;;;2.60;;
59145;SDS011;44928;53.074;6.646;2023-07-20T09:05:36;8.27;;;2.08;;
59145;SDS011;44928;53.074;6.646;2023-07-20T09:08:02;5.65;;;1.67;;
59145;SDS011;44928;53.074;6.646;2023-07-20T09:10:28;6.38;;;1.50;;
59145;SDS011;44928;53.074;6.646;2023-07-20T09:12:55;5.47;;;1.50;;
59145;SDS011;44928;53.074;6.646;2023-07-20T09:15:21;5.82;;;1.38;;
59145;SDS011;44928;53.074;6.646;2023-07-20T09:17:48;5.95;;;1.70;;
59145;SDS011;44928;53.074;6.646;2023-07-20T09:20:16;7.93;;;1.55;;
59145;SDS011;44928;53.074;6.646;2023-07-20T09:22:43;5.57;;;1.45;;
59145;SDS011;44928;53.074;6.646;2023-07-20T09:25:13;5.55;;;1.30;;
59145;SDS011;44928;53.074;6.646;2023-07-20T09:27:41;7.00;;;1.35;;
59145;SDS011;44928;53.074;6.646;2023-07-20T09:30:09;6.47;;;1.52;;
59145;SDS011;44928;53.074;6.646;2023-07-20T09:32:39;6.55;;;1.63;;
59145;SDS011;44928;53.074;6.646;2023-07-20T09:35:07;5.97;;;1.30;;
59145;SDS011;44928;53.074;6.646;2023-07-20T09:37:38;5.55;;;1.08;;
59145;SDS011;44928;53.074;6.646;2023-07-20T09:40:03;6.15;;;1.38;;
59145;SDS011;44928;53.074;6.646;2023-07-20T09:42:34;6.40;;;1.25;;
59145;SDS011;44928;53.074;6.646;2023-07-20T09:45:01;6.63;;;1.50;;
59145;SDS011;44928;53.074;6.646;2023-07-20T09:47:28;5.72;;;1.30;;
59145;SDS011;44928;53.074;6.646;2023-07-20T09:50:00;8.68;;;1.63;;
59145;SDS011;44928;53.074;6.646;2023-07-20T09:52:26;5.40;;;1.40;;
59145;SDS011;44928;53.074;6.646;2023-07-20T09:54:52;5.75;;;1.63;;
59145;SDS011;44928;53.074;6.646;2023-07-20T09:57:21;6.38;;;1.50;;
59145;SDS011;44928;53.074;6.646;2023-07-20T09:59:47;7.72;;;1.58;;
59145;SDS011;44928;53.074;6.646;2023-07-20T10:02:30;5.78;;;1.45;;
59145;SDS011;44928;53.074;6.646;2023-07-20T10:04:58;4.47;;;1.40;;
59145;SDS011;44928;53.074;6.646;2023-07-20T10:07:33;6.05;;;1.30;;
59145;SDS011;44928;53.074;6.646;2023-07-20T10:10:05;9.27;;;1.30;;
59145;SDS011;44928;53.074;6.646;2023-07-20T10:15:09;6.07;;;1.25;;
59145;SDS011;44928;53.074;6.646;2023-07-20T10:17:45;5.78;;;1.15;;
59145;SDS011;44928;53.074;6.646;2023-07-20T10:20:36;5.55;;;1.25;;
59145;SDS011;44928;53.074;6.646;2023-07-20T10:23:05;3.47;;;0.90;;
59145;SDS011;44928;53.074;6.646;2023-07-20T10:25:31;5.60;;;1.08;;
59145;SDS011;44928;53.074;6.646;2023-07-20T10:28:02;4.18;;;1.05;;
59145;SDS011;44928;53.074;6.646;2023-07-20T10:30:35;6.25;;;1.00;;
59145;SDS011;44928;53.074;6.646;2023-07-20T10:33:05;3.47;;;0.90;;
59145;SDS011;44928;53.074;6.646;2023-07-20T10:35:50;3.70;;;1.10;;
59145;SDS011;44928;53.074;6.646;2023-07-20T10:38:17;5.20;;;1.05;;
59145;SDS011;44928;53.074;6.646;2023-07-20T10:40:42;4.25;;;1.10;;
59145;SDS011;44928;53.074;6.646;2023-07-20T10:43:18;5.40;;;1.02;;
59145;SDS011;44928;53.074;6.646;2023-07-20T10:45:48;3.42;;;1.05;;
59145;SDS011;44928;53.074;6.646;2023-07-20T10:50:44;3.58;;;1.05;;
59145;SDS011;44928;53.074;6.646;2023-07-20T10:53:16;4.93;;;1.33;;
59145;SDS011;44928;53.074;6.646;2023-07-20T10:55:43;3.92;;;0.82;;
59145;SDS011;44928;53.074;6.646;2023-07-20T10:58:13;5.47;;;1.23;;
59145;SDS011;44928;53.074;6.646;2023-07-20T11:01:15;3.97;;;1.00;;
59145;SDS011;44928;53.074;6.646;2023-07-20T11:03:38;3.17;;;0.93;;
59145;SDS011;44928;53.074;6.646;2023-07-20T11:08:56;3.90;;;1.23;;
59145;SDS011;44928;53.074;6.646;2023-07-20T11:11:40;4.22;;;0.93;;
59145;SDS011;44928;53.074;6.646;2023-07-20T11:14:09;2.65;;;0.82;;
59145;SDS011;44928;53.074;6.646;2023-07-20T11:16:59;4.65;;;1.00;;
59145;SDS011;44928;53.074;6.646;2023-07-20T11:19:38;4.50;;;1.08;;
59145;SDS011;44928;53.074;6.646;2023-07-20T11:22:05;6.35;;;1.08;;
59145;SDS011;44928;53.074;6.646;2023-07-20T11:24:33;3.92;;;1.17;;
59145;SDS011;44928;53.074;6.646;2023-07-20T11:26:59;6.93;;;1.10;;
59145;SDS011;44928;53.074;6.646;2023-07-20T11:29:26;5.10;;;1.10;;
59145;SDS011;44928;53.074;6.646;2023-07-20T11:31:52;6.68;;;1.30;;
59145;SDS011;44928;53.074;6.646;2023-07-20T11:34:19;5.15;;;1.10;;
59145;SDS011;44928;53.074;6.646;2023-07-20T11:36:47;6.38;;;1.20;;
59145;SDS011;44928;53.074;6.646;2023-07-20T11:39:15;3.42;;;1.02;;
59145;SDS011;44928;53.074;6.646;2023-07-20T11:41:51;4.15;;;0.98;;
59145;SDS011;44928;53.074;6.646;2023-07-20T11:44:20;4.28;;;1.08;;
59145;SDS011;44928;53.074;6.646;2023-07-20T11:46:59;6.13;;;1.10;;
59145;SDS011;44928;53.074;6.646;2023-07-20T11:49:39;6.38;;;1.30;;
59145;SDS011;44928;53.074;6.646;2023-07-20T11:52:13;4.95;;;1.15;;
59145;SDS011;44928;53.074;6.646;2023-07-20T11:54:41;5.55;;;1.23;;
59145;SDS011;44928;53.074;6.646;2023-07-20T11:57:15;4.75;;;1.10;;
59145;SDS011;44928;53.074;6.646;2023-07-20T12:02:22;4.05;;;1.10;;
59145;SDS011;44928;53.074;6.646;2023-07-20T12:04:51;4.22;;;1.10;;
59145;SDS011;44928;53.074;6.646;2023-07-20T12:07:18;3.83;;;1.10;;
59145;SDS011;44928;53.074;6.646;2023-07-20T12:09:44;6.05;;;1.42;;
59145;SDS011;44928;53.074;6.646;2023-07-20T12:12:28;4.72;;;1.20;;
59145;SDS011;44928;53.074;6.646;2023-07-20T12:14:53;3.83;;;1.15;;
59145;SDS011;44928;53.074;6.646;2023-07-20T12:17:19;4.65;;;1.25;;
59145;SDS011;44928;53.074;6.646;2023-07-20T12:19:45;7.00;;;1.08;;
59145;SDS011;44928;53.074;6.646;2023-07-20T12:22:11;4.95;;;1.30;;
59145;SDS011;44928;53.074;6.646;2023-07-20T12:24:37;5.45;;;1.30;;
59145;SDS011;44928;53.074;6.646;2023-07-20T12:27:03;4.07;;;0.93;;
59145;SDS011;44928;53.074;6.646;2023-07-20T12:29:29;5.85;;;1.40;;
59145;SDS011;44928;53.074;6.646;2023-07-20T12:31:56;5.22;;;1.25;;
59145;SDS011;44928;53.074;6.646;2023-07-20T12:34:22;5.10;;;1.30;;
59145;SDS011;44928;53.074;6.646;2023-07-20T12:36:48;4.43;;;1.23;;
59145;SDS011;44928;53.074;6.646;2023-07-20T12:39:14;5.45;;;1.25;;
59145;SDS011;44928;53.074;6.646;2023-07-20T12:41:39;4.72;;;1.30;;
59145;SDS011;44928;53.074;6.646;2023-07-20T12:44:05;6.18;;;1.30;;
59145;SDS011;44928;53.074;6.646;2023-07-20T12:46:31;4.95;;;1.17;;
59145;SDS011;44928;53.074;6.646;2023-07-20T12:49:00;5.57;;;1.38;;
59145;SDS011;44928;53.074;6.646;2023-07-20T12:51:26;4.30;;;1.25;;
59145;SDS011;44928;53.074;6.646;2023-07-20T12:53:51;4.68;;;1.10;;
59145;SDS011;44928;53.074;6.646;2023-07-20T12:56:17;4.53;;;1.20;;
59145;SDS011;44928;53.074;6.646;2023-07-20T12:58:44;5.03;;;1.17;;
59145;SDS011;44928;53.074;6.646;2023-07-20T13:01:09;5.25;;;1.40;;
59145;SDS011;44928;53.074;6.646;2023-07-20T13:03:35;3.90;;;1.13;;
59145;SDS011;44928;53.074;6.646;2023-07-20T13:06:01;4.93;;;1.20;;
59145;SDS011;44928;53.074;6.646;2023-07-20T13:08:27;3.75;;;1.20;;
59145;SDS011;44928;53.074;6.646;2023-07-20T13:10:53;7.03;;;1.13;;
59145;SDS011;44928;53.074;6.646;2023-07-20T13:13:19;4.00;;;0.93;;
59145;SDS011;44928;53.074;6.646;2023-07-20T13:15:45;6.25;;;1.25;;
59145;SDS011;44928;53.074;6.646;2023-07-20T13:18:11;4.45;;;1.10;;
59145;SDS011;44928;53.074;6.646;2023-07-20T13:20:37;4.28;;;1.00;;
59145;SDS011;44928;53.074;6.646;2023-07-20T13:23:04;4.57;;;0.90;;
59145;SDS011;44928;53.074;6.646;2023-07-20T13:25:30;5.43;;;1.30;;
59145;SDS011;44928;53.074;6.646;2023-07-20T13:27:56;5.15;;;1.23;;
59145;SDS011;44928;53.074;6.646;2023-07-20T13:30:21;5.22;;;1.30;;
59145;SDS011;44928;53.074;6.646;2023-07-20T13:32:47;6.07;;;1.20;;
59145;SDS011;44928;53.074;6.646;2023-07-20T13:35:13;3.67;;;1.00;;
59145;SDS011;44928;53.074;6.646;2023-07-20T13:37:39;3.78;;;0.88;;
59145;SDS011;44928;53.074;6.646;2023-07-20T13:40:06;3.17;;;0.90;;
59145;SDS011;44928;53.074;6.646;2023-07-20T13:45:03;2.42;;;0.90;;
59145;SDS011;44928;53.074;6.646;2023-07-20T13:47:29;4.00;;;1.15;;
59145;SDS011;44928;53.074;6.646;2023-07-20T13:49:55;3.47;;;0.93;;
59145;SDS011;44928;53.074;6.646;2023-07-20T13:52:21;4.35;;;1.10;;
59145;SDS011;44928;53.074;6.646;2023-07-20T13:54:47;5.72;;;1.23;;
59145;SDS011;44928;53.074;6.646;2023-07-20T13:57:13;3.58;;;1.00;;
59145;SDS011;44928;53.074;6.646;2023-07-20T13:59:39;5.20;;;1.20;;
59145;SDS011;44928;53.074;6.646;2023-07-20T14:02:06;3.00;;;0.90;;
59145;SDS011;44928;53.074;6.646;2023-07-20T14:04:32;6.25;;;1.20;;
59145;SDS011;44928;53.074;6.646;2023-07-20T14:06:58;3.67;;;1.10;;
59145;SDS011;44928;53.074;6.646;2023-07-20T14:09:24;4.13;;;1.27;;
59145;SDS011;44928;53.074;6.646;2023-07-20T14:11:50;4.05;;;1.10;;
59145;SDS011;44928;53.074;6.646;2023-07-20T14:14:15;4.80;;;1.20;;
59145;SDS011;44928;53.074;6.646;2023-07-20T14:16:41;5.35;;;1.23;;
59145;SDS011;44928;53.074;6.646;2023-07-20T14:19:07;3.92;;;1.10;;
59145;SDS011;44928;53.074;6.646;2023-07-20T14:21:33;3.92;;;1.05;;
59145;SDS011;44928;53.074;6.646;2023-07-20T14:23:59;4.28;;;1.10;;
59145;SDS011;44928;53.074;6.646;2023-07-20T14:26:25;6.65;;;1.38;;
59145;SDS011;44928;53.074;6.646;2023-07-20T14:28:50;4.47;;;1.20;;
59145;SDS011;44928;53.074;6.646;2023-07-20T14:31:16;4.93;;;1.35;;
59145;SDS011;44928;53.074;6.646;2023-07-20T14:33:42;4.50;;;1.10;;
59145;SDS011;44928;53.074;6.646;2023-07-20T14:36:08;4.00;;;1.10;;
59145;SDS011;44928;53.074;6.646;2023-07-20T14:38:34;5.85;;;1.10;;
59145;SDS011;44928;53.074;6.646;2023-07-20T14:41:01;3.67;;;1.17;;
59145;SDS011;44928;53.074;6.646;2023-07-20T14:43:27;3.90;;;1.08;;
59145;SDS011;44928;53.074;6.646;2023-07-20T14:45:53;7.40;;;1.52;;
59145;SDS011;44928;53.074;6.646;2023-07-20T14:48:20;11.30;;;1.60;;
59145;SDS011;44928;53.074;6.646;2023-07-20T14:50:45;5.28;;;1.50;;
59145;SDS011;44928;53.074;6.646;2023-07-20T14:53:12;4.72;;;1.10;;
59145;SDS011;44928;53.074;6.646;2023-07-20T14:55:39;4.22;;;1.20;;
59145;SDS011;44928;53.074;6.646;2023-07-20T14:58:04;6.13;;;1.40;;
59145;SDS011;44928;53.074;6.646;2023-07-20T15:00:30;4.93;;;1.30;;
59145;SDS011;44928;53.074;6.646;2023-07-20T15:02:56;3.88;;;1.10;;
59145;SDS011;44928;53.074;6.646;2023-07-20T15:05:22;6.30;;;1.40;;
59145;SDS011;44928;53.074;6.646;2023-07-20T15:07:50;4.15;;;1.17;;
59145;SDS011;44928;53.074;6.646;2023-07-20T15:10:16;5.15;;;1.20;;
59145;SDS011;44928;53.074;6.646;2023-07-20T15:12:42;4.90;;;1.23;;